Time;durP1;ratioP1;P1;durP2;ratioP2;P2;SDS_P1;SDS_P2;PMS_P1;PMS_P2;Temp;Humidity;BMP_temperature;BMP_pressure;BME280_temperature;BME280_humidity;BME280_pressure;Samples;Min_cycle;Max_cycle;Signal;HPM_P1;HPM_P2
2022/09/10 00:01:27;;;;;;;7.03;5.47;;;;;;;14.81;nan;100573.63;5088171;28;20036;-66
2022/09/10 00:03:53;;;;;;;9.27;6.50;;;;;;;15.22;nan;100640.28;5054448;28;20387;-66
2022/09/10 00:06:19;;;;;;;9.77;6.05;;;;;;;14.10;nan;100451.16;5087789;28;20029;-69
2022/09/10 00:08:45;;;;;;;9.32;6.05;;;;;;;14.82;nan;100580.63;5072029;28;20055;-67
2022/09/10 00:11:11;;;;;;;14.45;7.05;;;;;;;15.20;nan;100640.38;5087680;28;20032;-66
2022/09/10 00:13:38;;;;;;;14.48;7.25;;;;;;;15.15;nan;100628.28;5072371;28;20555;-70
2022/09/10 00:16:05;;;;;;;11.43;7.47;;;;;;;15.23;nan;100648.13;5071444;28;20028;-69
2022/09/10 00:18:30;;;;;;;13.52;7.07;;;;;;;15.23;nan;100639.34;5054330;28;20391;-70
2022/09/10 00:20:58;;;;;;;13.85;7.40;;;;;;;14.90;nan;100583.72;5070945;28;20128;-67
2022/09/10 00:23:25;;;;;;;15.68;7.55;;;;;;;15.24;nan;100627.78;5072165;28;20020;-69
2022/09/10 00:25:53;;;;;;;12.15;8.30;;;;;;;14.95;nan;100586.09;5071972;28;20039;-68
2022/09/10 00:28:20;;;;;;;11.93;6.55;;;;;;;15.18;nan;100626.34;5071192;28;20024;-67
2022/09/10 00:30:48;;;;;;;8.30;6.07;;;;;;;15.23;nan;100620.78;5087603;28;20468;-69
2022/09/10 00:33:14;;;;;;;9.68;5.63;;;;;;;15.17;nan;100608.75;5072115;28;20100;-69
2022/09/10 00:35:40;;;;;;;9.27;5.78;;;;;;;15.09;nan;100612.75;5070746;28;20036;-69
2022/09/10 00:38:07;;;;;;;10.68;6.05;;;;;;;15.13;nan;100612.47;5072133;28;20028;-69
2022/09/10 00:40:33;;;;;;;11.52;7.10;;;;;;;14.71;nan;100543.25;5072003;28;20035;-68
2022/09/10 00:42:58;;;;;;;12.15;6.95;;;;;;;15.15;nan;100615.91;5072032;28;20032;-67
2022/09/10 00:45:26;;;;;;;9.38;6.30;;;;;;;14.79;nan;100550.78;5071829;28;20036;-69
2022/09/10 00:47:54;;;;;;;11.32;6.10;;;;;;;15.14;nan;100622.16;5071595;28;20060;-69
2022/09/10 00:50:21;;;;;;;10.15;6.60;;;;;;;15.14;nan;100622.16;5074669;28;20510;-69
2022/09/10 00:52:48;;;;;;;7.82;5.68;;;;;;;15.13;nan;100608.97;5075665;28;20025;-70
2022/09/10 00:55:15;;;;;;;7.45;5.43;;;;;;;15.07;nan;100601.34;5091671;28;20024;-69
2022/09/10 00:57:41;;;;;;;8.13;5.82;;;;;;;15.04;nan;100597.06;5074535;28;20074;-69
2022/09/10 01:00:10;;;;;;;9.10;6.30;;;;;;;15.12;nan;100605.47;5075905;28;20040;-70
2022/09/10 01:02:35;;;;;;;8.50;6.22;;;;;;;15.12;nan;100605.47;5074367;28;20044;-71
2022/09/10 01:05:02;;;;;;;10.70;6.63;;;;;;;14.77;nan;100566.75;5075505;28;20032;-68
2022/09/10 01:07:28;;;;;;;10.82;6.93;;;;;;;15.11;nan;100594.94;5091071;28;20128;-68
2022/09/10 01:09:55;;;;;;;11.25;7.80;;;;;;;14.74;nan;100532.47;5057586;28;20551;-69
2022/09/10 01:12:39;;;;;;;12.73;8.20;;;;;;;15.14;nan;100606.25;5075457;28;20039;-71
2022/09/10 01:15:20;;;;;;;13.73;8.75;;;;;;;15.17;nan;100606.09;5075315;28;20136;-73
2022/09/10 01:18:14;;;;;;;12.88;9.13;;;;;;;15.19;nan;100592.72;5090956;28;20082;-71
2022/09/10 01:21:00;;;;;;;13.38;9.05;;;;;;;15.21;nan;100601.44;5075238;28;20036;-69
2022/09/10 01:23:41;;;;;;;12.32;8.95;;;;;;;15.10;nan;100586.13;5073937;28;20040;-69
2022/09/10 01:26:39;;;;;;;12.93;8.90;;;;;;;15.20;nan;100605.91;5073587;28;20123;-68
2022/09/10 01:29:20;;;;;;;12.73;9.27;;;;;;;15.17;nan;100595.47;5074027;28;20326;-68
2022/09/10 01:31:56;;;;;;;13.32;8.80;;;;;;;15.20;nan;100592.66;5073701;28;20524;-69
2022/09/10 01:34:29;;;;;;;16.10;9.25;;;;;;;14.88;nan;100547.66;5090612;28;20105;-68
2022/09/10 01:36:58;;;;;;;13.45;9.02;;;;;;;14.83;nan;100537.28;5073972;28;20157;-68
2022/09/10 01:39:24;;;;;;;15.45;9.20;;;;;;;15.06;nan;100573.16;5090668;28;20024;-69
2022/09/10 01:41:53;;;;;;;15.40;8.48;;;;;;;15.17;nan;100599.91;5073905;28;20041;-67
2022/09/10 01:44:39;;;;;;;11.88;8.40;;;;;;;15.20;nan;100600.63;5090263;28;20029;-65
2022/09/10 01:47:25;;;;;;;13.57;8.05;;;;;;;15.13;nan;100572.72;5090331;28;20498;-66
2022/09/10 01:50:29;;;;;;;19.25;8.45;;;;;;;15.21;nan;100597.00;5090467;28;20086;-64
2022/09/10 01:53:12;;;;;;;16.25;8.57;;;;;;;14.89;nan;100544.03;5074763;28;20142;-62
2022/09/10 01:55:52;;;;;;;15.55;7.75;;;;;;;15.26;nan;100598.56;5074872;28;20037;-64
2022/09/10 01:58:42;;;;;;;12.27;6.15;;;;;;;15.26;nan;100594.13;5089871;28;20036;-64
2022/09/10 02:01:13;;;;;;;8.88;5.43;;;;;;;14.94;nan;100536.72;5070843;28;20136;-65
2022/09/10 02:03:41;;;;;;;11.30;5.88;;;;;;;15.20;nan;100592.66;5074441;28;20024;-63
2022/09/10 02:06:08;;;;;;;11.20;5.78;;;;;;;15.27;nan;100597.59;5073183;28;20456;-65
2022/09/10 02:08:37;;;;;;;13.48;5.35;;;;;;;15.30;nan;100610.69;5072884;28;20055;-65
2022/09/10 02:11:08;;;;;;;10.98;5.63;;;;;;;15.13;nan;100575.38;5073151;28;20376;-66
2022/09/10 02:13:34;;;;;;;13.05;4.90;;;;;;;15.28;nan;100594.00;5074303;28;20040;-62
2022/09/10 02:16:02;;;;;;;19.63;6.35;;;;;;;15.06;nan;100546.66;5074305;28;20056;-58
2022/09/10 02:18:28;;;;;;;10.90;5.03;;;;;;;15.33;nan;100597.25;5089818;28;20029;-61
2022/09/10 02:20:55;;;;;;;13.18;4.05;;;;;;;15.27;nan;100577.25;5073158;28;20048;-60
2022/09/10 02:23:26;;;;;;;12.15;4.53;;;;;;;15.31;nan;100597.34;5074084;28;20045;-59
2022/09/10 02:25:52;;;;;;;11.18;5.22;;;;;;;15.23;nan;100575.72;5073939;28;20381;-59
2022/09/10 02:28:18;;;;;;;11.68;5.72;;;;;;;14.96;nan;100522.44;5074034;28;20119;-60
2022/09/10 02:30:43;;;;;;;11.20;6.10;;;;;;;14.20;nan;100395.09;5073744;28;20178;-61
2022/09/10 02:33:10;;;;;;;14.00;7.53;;;;;;;15.30;nan;100581.50;5074199;28;20029;-60
2022/09/10 02:35:36;;;;;;;13.90;7.90;;;;;;;14.91;nan;100513.88;5074139;28;20056;-62
2022/09/10 02:38:01;;;;;;;19.33;10.23;;;;;;;15.27;nan;100574.59;5089483;28;20114;-60
2022/09/10 02:40:30;;;;;;;15.85;9.80;;;;;;;15.28;nan;100586.91;5072513;28;20036;-61
2022/09/10 02:42:56;;;;;;;16.33;10.32;;;;;;;15.28;nan;100578.97;5073626;28;20040;-60
2022/09/10 02:45:21;;;;;;;19.52;11.27;;;;;;;15.14;nan;100560.31;5073575;28;20458;-60
2022/09/10 02:47:47;;;;;;;17.90;10.10;;;;;;;14.73;nan;100498.13;5073771;28;20028;-61
2022/09/10 02:50:14;;;;;;;18.95;10.70;;;;;;;15.18;nan;100569.78;5073677;28;20079;-60
2022/09/10 02:52:40;;;;;;;17.27;10.85;;;;;;;15.25;nan;100586.22;5073551;28;20400;-59
2022/09/10 02:55:05;;;;;;;22.00;11.77;;;;;;;15.28;nan;100586.91;5073642;28;20032;-60
2022/09/10 02:57:31;;;;;;;22.98;12.32;;;;;;;15.21;nan;100582.88;5072364;28;20507;-61
2022/09/10 02:59:56;;;;;;;21.17;12.20;;;;;;;15.25;nan;100570.31;5089049;28;20032;-59
2022/09/10 03:02:22;;;;;;;20.80;12.90;;;;;;;15.20;nan;100554.69;5073422;28;20032;-59
2022/09/10 03:04:47;;;;;;;23.98;12.40;;;;;;;14.97;nan;100524.13;5089036;28;20044;-61
2022/09/10 03:07:16;;;;;;;23.30;13.20;;;;;;;15.35;nan;100590.09;5073200;28;20029;-60
2022/09/10 03:09:41;;;;;;;26.85;14.43;;;;;;;15.17;nan;100549.53;5073221;28;20101;-60
2022/09/10 03:12:06;;;;;;;22.92;14.13;;;;;;;15.27;nan;100579.91;5073296;28;20483;-60
2022/09/10 03:14:32;;;;;;;21.20;13.27;;;;;;;14.93;nan;100527.91;5072891;28;20395;-60
2022/09/10 03:16:58;;;;;;;30.90;14.60;;;;;;;15.19;nan;100571.53;5073306;28;20036;-60
2022/09/10 03:19:24;;;;;;;21.77;12.85;;;;;;;15.14;nan;100566.47;5071666;28;20033;-60
2022/09/10 03:21:49;;;;;;;21.02;12.35;;;;;;;15.02;nan;100556.56;5072955;28;20044;-60
2022/09/10 03:24:14;;;;;;;17.92;12.55;;;;;;;14.89;nan;100534.28;5072993;28;20516;-62
2022/09/10 03:26:40;;;;;;;22.25;12.52;;;;;;;15.16;nan;100582.28;5073027;28;20601;-62
2022/09/10 03:29:05;;;;;;;21.50;11.48;;;;;;;14.70;nan;100512.41;5072720;28;20442;-61
2022/09/10 03:31:30;;;;;;;24.17;11.77;;;;;;;15.08;nan;100580.06;5072865;28;20036;-60
2022/09/10 03:33:56;;;;;;;22.33;12.27;;;;;;;14.68;nan;100516.94;5071681;28;20471;-61
2022/09/10 03:36:22;;;;;;;25.00;12.00;;;;;;;15.06;nan;100605.78;5072534;28;20095;-60
2022/09/10 03:38:47;;;;;;;19.65;12.30;;;;;;;14.77;nan;100529.66;5088355;28;20036;-61
2022/09/10 03:41:13;;;;;;;19.75;12.98;;;;;;;14.94;nan;100561.44;5072739;28;20051;-61
2022/09/10 03:43:38;;;;;;;22.73;14.05;;;;;;;14.71;nan;100526.50;5088058;28;20040;-60
2022/09/10 03:46:04;;;;;;;27.27;14.00;;;;;;;14.72;nan;100523.75;5072700;28;20068;-61
2022/09/10 03:48:29;;;;;;;21.75;14.05;;;;;;;14.75;nan;100536.84;5072824;28;20043;-60
2022/09/10 03:50:55;;;;;;;30.27;14.82;;;;;;;14.64;nan;100528.63;5072462;28;20036;-61
2022/09/10 03:53:21;;;;;;;26.60;14.13;;;;;;;14.63;nan;100522.47;5072667;28;20036;-60
2022/09/10 03:55:49;;;;;;;25.73;13.20;;;;;;;14.77;nan;100542.09;5072517;28;20506;-60
2022/09/10 03:58:16;;;;;;;22.95;13.65;;;;;;;14.75;nan;100528.03;5072266;28;20028;-61
2022/09/10 04:00:41;;;;;;;25.15;12.80;;;;;;;15.07;nan;100580.16;5071403;28;20387;-61
2022/09/10 04:03:07;;;;;;;24.27;12.88;;;;;;;15.05;nan;100574.06;5072586;28;20043;-60
2022/09/10 04:05:33;;;;;;;25.92;13.20;;;;;;;14.83;nan;100531.13;5072306;28;20036;-61
2022/09/10 04:07:59;;;;;;;25.75;13.70;;;;;;;14.88;nan;100523.78;5072270;28;20102;-60
2022/09/10 04:10:25;;;;;;;29.50;14.32;;;;;;;15.26;nan;100587.94;5087915;28;20036;-60
2022/09/10 04:12:53;;;;;;;24.63;12.95;;;;;;;15.31;nan;100577.94;5087755;28;20033;-62
2022/09/10 04:15:20;;;;;;;21.38;13.95;;;;;;;15.30;nan;100587.69;5071243;28;20064;-63
2022/09/10 04:17:47;;;;;;;24.13;13.57;;;;;;;14.94;nan;100526.13;5088211;28;20486;-62
2022/09/10 04:20:12;;;;;;;26.80;13.85;;;;;;;14.86;nan;100529.16;5072389;28;20033;-62
2022/09/10 04:22:38;;;;;;;24.15;12.90;;;;;;;15.06;nan;100567.84;5071785;28;20094;-60
2022/09/10 04:25:04;;;;;;;24.30;12.77;;;;;;;14.96;nan;100558.69;5072186;28;20511;-61
2022/09/10 04:27:29;;;;;;;23.05;13.63;;;;;;;15.02;nan;100559.19;5072166;28;20032;-60
2022/09/10 04:29:55;;;;;;;26.40;13.55;;;;;;;14.97;nan;100547.97;5071052;28;20464;-60
2022/09/10 04:32:20;;;;;;;24.15;13.55;;;;;;;14.68;nan;100494.88;5072226;28;20459;-61
2022/09/10 04:34:45;;;;;;;22.25;13.98;;;;;;;14.79;nan;100541.06;5072140;28;20037;-63
2022/09/10 04:37:11;;;;;;;27.05;13.95;;;;;;;13.90;nan;100411.66;5070932;28;20036;-61
2022/09/10 04:39:36;;;;;;;24.70;14.57;;;;;;;14.88;nan;100574.16;5072054;28;20082;-62
2022/09/10 04:42:02;;;;;;;25.25;14.27;;;;;;;14.64;nan;100545.38;5071960;28;20060;-60
2022/09/10 04:44:28;;;;;;;22.38;14.40;;;;;;;14.96;nan;100601.09;5070740;28;20044;-61
2022/09/10 04:46:54;;;;;;;27.63;15.43;;;;;;;14.55;nan;100551.16;5072107;28;20033;-63
2022/09/10 04:49:19;;;;;;;29.50;15.60;;;;;;;14.78;nan;100604.72;5071789;28;20114;-60
2022/09/10 04:51:44;;;;;;;34.33;18.13;;;;;;;14.72;nan;100603.25;5071829;28;20031;-61
2022/09/10 04:54:12;;;;;;;31.90;16.55;;;;;;;14.37;nan;100551.28;5070676;28;20553;-61
2022/09/10 04:56:37;;;;;;;33.53;17.45;;;;;;;14.58;nan;100606.63;5070610;28;20043;-62
2022/09/10 04:59:03;;;;;;;28.50;16.65;;;;;;;14.52;nan;100609.59;5072159;28;20040;-62
2022/09/10 05:01:28;;;;;;;36.88;19.13;;;;;;;14.62;nan;100621.41;5070627;28;20032;-62
2022/09/10 05:03:53;;;;;;;35.70;17.35;;;;;;;14.61;nan;100611.78;5071904;28;20513;-61
2022/09/10 05:06:19;;;;;;;42.70;18.80;;;;;;;14.59;nan;100613.63;5071672;28;20033;-61
2022/09/10 05:08:44;;;;;;;29.38;18.08;;;;;;;14.27;nan;100568.56;5087392;28;20492;-62
2022/09/10 05:11:10;;;;;;;41.67;19.17;;;;;;;14.26;nan;100567.69;5071666;28;20086;-60
2022/09/10 05:13:35;;;;;;;44.97;19.95;;;;;;;14.58;nan;100627.81;5071826;28;20060;-60
2022/09/10 05:16:01;;;;;;;38.40;18.50;;;;;;;14.58;nan;100632.25;5070657;28;20387;-62
2022/09/10 05:18:26;;;;;;;42.25;20.38;;;;;;;14.55;nan;100627.97;5071821;28;20090;-61
2022/09/10 05:20:52;;;;;;;35.92;19.58;;;;;;;14.16;nan;100570.88;5071696;28;20399;-60
2022/09/10 05:23:18;;;;;;;38.60;19.30;;;;;;;14.45;nan;100621.44;5071678;28;20064;-60
2022/09/10 05:25:43;;;;;;;39.53;19.70;;;;;;;14.17;nan;100577.91;5087064;28;20044;-60
2022/09/10 05:28:09;;;;;;;47.35;20.17;;;;;;;14.18;nan;100572.53;5071747;28;20037;-61
2022/09/10 05:30:35;;;;;;;53.08;21.17;;;;;;;14.54;nan;100636.84;5071600;28;20040;-61
2022/09/10 05:33:01;;;;;;;45.70;21.80;;;;;;;14.28;nan;100592.28;5071607;28;20037;-61
2022/09/10 05:35:27;;;;;;;40.35;20.58;;;;;;;14.61;nan;100648.84;5071966;28;20082;-60
2022/09/10 05:37:55;;;;;;;49.08;21.42;;;;;;;14.68;nan;100636.16;5075067;28;20036;-61
2022/09/10 05:40:21;;;;;;;40.50;21.77;;;;;;;14.58;nan;100584.59;5090556;28;20036;-61
2022/09/10 05:42:47;;;;;;;36.40;21.27;;;;;;;15.00;nan;100648.53;5075143;28;20040;-61
2022/09/10 05:45:12;;;;;;;45.13;22.13;;;;;;;15.04;nan;100643.94;5073711;28;20036;-61
2022/09/10 05:47:38;;;;;;;44.63;21.33;;;;;;;15.11;nan;100653.28;5074904;28;20510;-61
2022/09/10 05:50:04;;;;;;;41.80;21.08;;;;;;;15.16;nan;100653.88;5074779;28;20063;-60
2022/09/10 05:52:29;;;;;;;48.78;21.42;;;;;;;15.23;nan;100653.44;5074619;28;20036;-60
2022/09/10 05:54:55;;;;;;;46.17;21.38;;;;;;;15.34;nan;100657.31;5074661;28;20028;-60
2022/09/10 05:57:20;;;;;;;54.55;22.27;;;;;;;15.55;nan;100656.19;5075053;28;20557;-61
2022/09/10 05:59:46;;;;;;;39.22;21.15;;;;;;;15.70;nan;100658.81;5074503;28;20032;-61
2022/09/10 06:02:16;;;;;;;42.42;20.52;;;;;;;15.87;nan;100662.31;5074717;28;20039;-61
2022/09/10 06:04:41;;;;;;;40.60;19.70;;;;;;;15.46;nan;100562.03;5073415;28;20472;-62
2022/09/10 06:07:07;;;;;;;41.83;20.38;;;;;;;15.56;nan;100570.31;5074484;28;20039;-61
2022/09/10 06:09:33;;;;;;;38.10;18.73;;;;;;;15.91;nan;100624.03;5074095;28;20082;-60
2022/09/10 06:11:58;;;;;;;30.23;17.00;;;;;;;15.94;nan;100614.09;5090225;28;20060;-60
2022/09/10 06:14:23;;;;;;;35.50;15.48;;;;;;;15.93;nan;100606.22;5074040;28;20044;-60
2022/09/10 06:16:50;;;;;;;28.67;13.52;;;;;;;16.04;nan;100619.75;5074283;28;20059;-61
2022/09/10 06:19:16;;;;;;;18.60;9.75;;;;;;;16.32;nan;100665.81;5074194;28;20087;-59
2022/09/10 06:21:41;;;;;;;15.70;8.70;;;;;;;16.35;nan;100675.41;5074273;28;20484;-61
2022/09/10 06:24:07;;;;;;;19.70;8.90;;;;;;;16.03;nan;100623.31;5074196;28;20036;-61
2022/09/10 06:26:32;;;;;;;11.77;7.78;;;;;;;16.45;nan;100681.06;5073111;28;20040;-61
2022/09/10 06:28:58;;;;;;;10.93;6.28;;;;;;;16.23;nan;100625.66;5089749;28;20028;-60
2022/09/10 06:31:23;;;;;;;11.90;6.60;;;;;;;16.56;nan;100683.94;5074119;28;20040;-62
2022/09/10 06:33:49;;;;;;;11.15;6.47;;;;;;;16.61;nan;100677.41;5074010;28;20040;-60
2022/09/10 06:36:15;;;;;;;13.27;6.85;;;;;;;16.60;nan;100683.69;5073859;28;20054;-62
2022/09/10 06:38:42;;;;;;;9.20;6.20;;;;;;;16.38;nan;100635.38;5072739;28;20047;-61
2022/09/10 06:41:11;;;;;;;10.57;5.40;;;;;;;16.49;nan;100656.03;5089463;28;20032;-61
2022/09/10 06:43:37;;;;;;;10.18;6.03;;;;;;;16.63;nan;100682.66;5073892;28;20464;-62
2022/09/10 06:46:23;;;;;;;10.80;5.68;;;;;;;16.80;nan;100704.63;5073570;28;20032;-61
2022/09/10 06:48:48;;;;;;;6.90;5.38;;;;;;;16.54;nan;100662.81;5073109;28;20048;-61
2022/09/10 06:51:14;;;;;;;8.80;5.70;;;;;;;16.49;nan;100656.03;5073526;28;20056;-60
2022/09/10 06:53:41;;;;;;;10.15;5.70;;;;;;;16.53;nan;100666.38;5072398;28;20028;-62
2022/09/10 06:56:08;;;;;;;10.23;5.53;;;;;;;16.90;nan;100712.88;5072410;28;20036;-61
2022/09/10 06:58:34;;;;;;;11.05;5.57;;;;;;;17.09;nan;100713.50;5072034;28;20476;-61
2022/09/10 07:01:24;;;;;;;11.95;4.72;;;;;;;17.20;nan;100710.16;5089092;28;20035;-60
2022/09/10 07:03:58;;;;;;;8.35;4.03;;;;;;;17.23;nan;100689.56;5073356;28;20031;-62
2022/09/10 07:06:24;;;;;;;5.90;3.38;;;;;;;17.03;nan;100660.69;5073405;28;20020;-60
2022/09/10 07:08:54;;;;;;;6.53;3.47;;;;;;;17.39;nan;100716.94;5072658;28;20060;-60
2022/09/10 07:11:19;;;;;;;7.45;3.85;;;;;;;17.40;nan;100713.28;5073188;28;20032;-60
2022/09/10 07:13:48;;;;;;;4.22;3.45;;;;;;;16.85;nan;100619.25;5088800;28;20062;-61
2022/09/10 07:16:17;;;;;;;8.23;3.58;;;;;;;17.28;nan;100682.13;5072932;28;20036;-61
2022/09/10 07:18:42;;;;;;;6.60;3.70;;;;;;;17.41;nan;100706.16;5071948;28;20025;-60
2022/09/10 07:21:13;;;;;;;9.15;4.13;;;;;;;17.12;nan;100675.22;5073220;28;20540;-60
2022/09/10 07:23:39;;;;;;;4.97;3.85;;;;;;;17.34;nan;100724.31;5071685;28;20032;-61
2022/09/10 07:26:06;;;;;;;8.48;3.35;;;;;;;17.32;nan;100728.03;5073027;28;20024;-61
2022/09/10 07:28:32;;;;;;;6.88;3.03;;;;;;;17.42;nan;100738.00;5071547;28;20032;-60
2022/09/10 07:30:57;;;;;;;7.47;3.17;;;;;;;17.43;nan;100678.50;5071737;28;20036;-60
2022/09/10 07:33:23;;;;;;;4.22;2.60;;;;;;;18.04;nan;100725.19;5088662;28;20117;-59
2022/09/10 07:35:48;;;;;;;7.63;2.30;;;;;;;18.11;nan;100753.16;5072947;28;20029;-60
2022/09/10 07:38:16;;;;;;;4.95;2.40;;;;;;;18.19;nan;100736.66;5072768;28;20494;-62
2022/09/10 07:40:42;;;;;;;9.90;5.90;;;;;;;17.92;nan;100740.16;5088142;28;20037;-60
2022/09/10 07:43:08;;;;;;;15.38;12.18;;;;;;;17.48;nan;100701.34;5072883;28;20388;-60
2022/09/10 07:45:33;;;;;;;21.08;15.07;;;;;;;17.31;nan;100743.13;5072184;28;20040;-61
2022/09/10 07:47:58;;;;;;;17.67;14.80;;;;;;;17.29;nan;100770.78;5071535;28;20104;-60
2022/09/10 07:50:24;;;;;;;20.17;16.98;;;;;;;17.13;nan;100768.19;5072456;28;20472;-61
2022/09/10 07:52:49;;;;;;;22.77;17.20;;;;;;;16.80;nan;100711.72;5071927;28;20112;-61
2022/09/10 07:55:16;;;;;;;22.02;16.83;;;;;;;16.51;nan;100717.88;5072453;28;20040;-61
2022/09/10 07:57:43;;;;;;;28.98;18.77;;;;;;;16.78;nan;100775.59;5071675;28;20033;-62
2022/09/10 08:00:11;;;;;;;28.35;18.35;;;;;;;16.72;nan;100757.34;5072421;28;20082;-61
2022/09/10 08:02:40;;;;;;;27.92;19.92;;;;;;;16.82;nan;100779.81;5071464;28;20036;-61
2022/09/10 08:05:07;;;;;;;23.85;18.02;;;;;;;16.56;nan;100774.31;5071297;28;20119;-63
2022/09/10 08:07:32;;;;;;;28.05;19.67;;;;;;;16.57;nan;100782.19;5087792;28;20080;-63
2022/09/10 08:09:57;;;;;;;28.10;21.40;;;;;;;16.63;nan;100781.84;5072360;28;20067;-63
2022/09/10 08:12:24;;;;;;;26.35;20.42;;;;;;;16.53;nan;100751.38;5072184;28;20033;-62
2022/09/10 08:14:50;;;;;;;22.83;18.77;;;;;;;17.28;nan;100793.88;5072485;28;20120;-62
2022/09/10 08:17:15;;;;;;;20.00;16.60;;;;;;;17.84;nan;100806.38;5072582;28;20162;-62
2022/09/10 08:19:41;;;;;;;16.42;14.70;;;;;;;18.49;nan;100748.00;5072392;28;20399;-63
2022/09/10 08:22:06;;;;;;;13.85;12.45;;;;;;;19.55;nan;100821.63;5072143;28;20369;-64
2022/09/10 08:24:32;;;;;;;14.18;12.73;;;;;;;19.47;nan;100788.41;5072124;28;20043;-62
2022/09/10 08:26:57;;;;;;;14.30;12.20;;;;;;;19.74;nan;100844.34;5072242;28;20131;-63
2022/09/10 08:29:22;;;;;;;14.00;12.57;;;;;;;20.00;nan;100833.53;5072318;28;20369;-63
2022/09/10 08:31:48;;;;;;;11.60;10.52;;;;;;;20.29;nan;100866.22;5072261;28;20392;-63
2022/09/10 08:34:13;;;;;;;10.88;9.43;;;;;;;20.20;nan;100830.28;5071080;28;20057;-63
2022/09/10 08:36:38;;;;;;;10.85;9.85;;;;;;;20.56;nan;100833.94;5072166;28;20115;-65
2022/09/10 08:39:05;;;;;;;9.70;8.68;;;;;;;20.19;nan;100790.31;5087671;28;20506;-66
2022/09/10 08:41:43;;;;;;;8.35;7.53;;;;;;;20.65;nan;100847.50;5071958;28;20038;-65
2022/09/10 08:44:08;;;;;;;7.95;7.25;;;;;;;21.75;nan;100898.91;5070755;28;20036;-66
2022/09/10 08:46:42;;;;;;;6.72;6.13;;;;;;;20.95;nan;100863.09;5072358;28;20116;-65
2022/09/10 08:49:18;;;;;;;7.15;5.60;;;;;;;20.83;nan;100914.00;5087415;28;20028;-65
2022/09/10 08:51:56;;;;;;;7.15;6.45;;;;;;;20.71;nan;100862.25;5087451;28;20090;-65
2022/09/10 08:54:31;;;;;;;5.57;4.82;;;;;;;20.20;nan;100865.03;5087627;28;20035;-65
2022/09/10 08:56:59;;;;;;;6.13;5.47;;;;;;;19.77;nan;100855.69;5070850;28;20038;-67
2022/09/10 08:59:39;;;;;;;6.47;5.88;;;;;;;19.35;nan;100858.63;5087332;28;20077;-67
2022/09/10 09:02:51;;;;;;;7.45;6.75;;;;;;;18.93;nan;100871.25;5087154;28;20028;-65
2022/09/10 09:05:21;;;;;;;7.53;6.82;;;;;;;18.98;nan;100916.28;5071052;28;20075;-67
2022/09/10 09:07:48;;;;;;;7.85;6.93;;;;;;;18.88;nan;100902.72;5070695;28;20048;-67
2022/09/10 09:10:46;;;;;;;7.28;6.10;;;;;;;19.10;nan;100916.31;5073448;28;20387;-68
2022/09/10 09:13:25;;;;;;;6.40;5.75;;;;;;;19.50;nan;100916.34;5074707;28;20105;-62
2022/09/10 09:16:16;;;;;;;5.93;5.22;;;;;;;19.90;nan;100930.50;5074439;28;20032;-64
2022/09/10 09:19:06;;;;;;;7.35;5.40;;;;;;;19.98;nan;100934.34;5091219;28;20518;-62
2022/09/10 09:21:51;;;;;;;6.72;5.70;;;;;;;19.96;nan;100952.31;5075641;28;20035;-63
2022/09/10 09:24:23;;;;;;;6.43;5.80;;;;;;;19.83;nan;100942.56;5075499;28;20028;-64
2022/09/10 09:26:49;;;;;;;7.03;5.28;;;;;;;19.51;nan;100892.22;5075352;28;20031;-63
2022/09/10 09:29:34;;;;;;;7.85;6.82;;;;;;;19.44;nan;100880.22;5075159;28;20391;-62
2022/09/10 09:32:03;;;;;;;6.38;5.78;;;;;;;19.73;nan;100944.16;5090908;28;20033;-67
2022/09/10 09:34:33;;;;;;;5.28;4.72;;;;;;;20.64;nan;100938.53;5091040;28;20028;-65
2022/09/10 09:37:02;;;;;;;5.28;3.97;;;;;;;21.50;nan;100950.84;5090912;28;20033;-64
2022/09/10 09:39:35;;;;;;;3.95;3.55;;;;;;;21.23;nan;100944.88;5074988;28;20106;-65
2022/09/10 09:42:19;;;;;;;4.55;3.55;;;;;;;21.84;nan;100976.75;5073652;28;20498;-65
2022/09/10 09:44:59;;;;;;;4.40;3.42;;;;;;;22.53;nan;100939.19;5074697;28;20055;-65
2022/09/10 09:47:24;;;;;;;4.03;2.70;;;;;;;23.21;nan;100996.19;5090648;28;20074;-66
2022/09/10 09:49:50;;;;;;;3.60;3.30;;;;;;;23.42;nan;100948.78;5074669;28;20418;-65
2022/09/10 09:52:21;;;;;;;3.67;2.72;;;;;;;23.94;nan;101011.53;5073570;28;20051;-67
2022/09/10 09:54:51;;;;;;;;;;;;;;;24.18;nan;101003.22;5075492;28;20032;-66
2022/09/10 09:57:19;;;;;;;3.72;3.40;;;;;;;24.00;nan;101021.78;5074437;28;19916;-67
2022/09/10 09:59:45;;;;;;;3.85;3.17;;;;;;;23.24;nan;101019.25;5056820;28;20036;-67
2022/09/10 10:02:14;;;;;;;4.53;2.95;;;;;;;21.93;nan;100966.31;5073238;28;20032;-67
2022/09/10 10:04:43;;;;;;;3.67;3.28;;;;;;;21.71;nan;100989.41;5074075;28;20036;-67
2022/09/10 10:07:10;;;;;;;4.82;4.30;;;;;;;21.61;nan;100904.47;5072782;28;20040;-68
2022/09/10 10:09:41;;;;;;;4.03;3.72;;;;;;;22.54;nan;100970.38;5073044;28;20369;-66
2022/09/10 10:12:07;;;;;;;;;;;;;;;22.71;nan;101019.06;5073392;28;20551;-68
2022/09/10 10:14:35;;;;;;;3.70;3.22;;;;;;;22.68;nan;101021.19;5074177;28;19920;-69
2022/09/10 10:17:01;;;;;;;4.18;2.95;;;;;;;23.02;nan;101025.53;5089962;28;20032;-67
2022/09/10 10:19:34;;;;;;;2.97;2.63;;;;;;;23.50;nan;100997.34;5074351;28;20037;-69
2022/09/10 10:22:18;;;;;;;3.95;3.17;;;;;;;23.48;nan;101019.94;5072516;28;20424;-67
2022/09/10 10:24:45;;;;;;;4.80;3.95;;;;;;;22.98;nan;101024.91;5074331;28;20032;-68
2022/09/10 10:27:22;;;;;;;7.72;4.88;;;;;;;21.74;nan;101029.34;5073014;28;20036;-66
2022/09/10 10:30:10;;;;;;;5.85;4.85;;;;;;;20.94;nan;101016.59;5072846;28;20074;-66
2022/09/10 10:32:46;;;;;;;6.00;4.95;;;;;;;20.31;nan;101030.06;5074951;28;20150;-69
2022/09/10 10:35:55;;;;;;;5.57;4.57;;;;;;;19.67;nan;101014.00;5074016;28;20067;-68
2022/09/10 10:38:32;;;;;;;8.88;5.60;;;;;;;19.58;nan;101012.81;5072551;28;20071;-68
2022/09/10 10:41:10;;;;;;;6.82;5.45;;;;;;;20.52;nan;101009.81;5074406;28;20075;-67
2022/09/10 10:43:38;;;;;;;5.15;4.63;;;;;;;22.15;nan;101028.03;5073894;28;20064;-68
2022/09/10 10:46:07;;;;;;;7.93;5.20;;;;;;;22.58;nan;100993.31;5073858;28;20041;-69
2022/09/10 10:48:57;;;;;;;5.43;4.90;;;;;;;22.30;nan;101049.13;5074014;28;20024;-66
2022/09/10 10:51:35;;;;;;;6.18;5.20;;;;;;;21.42;nan;101030.91;5072613;28;20038;-67
2022/09/10 10:54:18;;;;;;;7.82;5.80;;;;;;;20.99;nan;101054.56;5089443;28;20430;-69
2022/09/10 10:57:09;;;;;;;6.40;5.90;;;;;;;21.14;nan;101033.91;5073848;28;20032;-69
2022/09/10 10:59:40;;;;;;;;;;;;;;;22.33;nan;101045.34;5063884;28;20040;-66
2022/09/10 11:02:34;;;;;;;6.80;4.47;;;;;;;23.81;nan;101078.94;5073641;28;20057;-67
2022/09/10 11:05:29;;;;;;;6.90;5.07;;;;;;;24.70;nan;101073.06;5073440;28;20033;-69
2022/09/10 11:08:02;;;;;;;6.40;4.15;;;;;;;25.21;nan;101108.03;5068498;28;20048;-68
2022/09/10 11:10:50;;;;;;;5.95;4.45;;;;;;;26.25;nan;101101.09;5088944;28;20134;-61
2022/09/10 11:13:24;;;;;;;6.22;2.90;;;;;;;26.33;nan;101113.03;5055383;28;20577;-60
2022/09/10 11:16:05;;;;;;;5.40;2.95;;;;;;;26.97;nan;101124.00;5064001;28;20032;-61
2022/09/10 11:18:48;;;;;;;6.30;2.97;;;;;;;25.85;nan;101121.97;5060512;28;20369;-60
2022/09/10 11:21:23;;;;;;;4.40;2.75;;;;;;;25.35;nan;101112.19;5078382;28;20055;-62
2022/09/10 11:23:56;;;;;;;4.22;2.58;;;;;;;24.83;nan;101054.03;5058046;28;20082;-59
2022/09/10 11:26:38;;;;;;;3.80;2.92;;;;;;;24.28;nan;101104.53;5088318;28;20062;-61
2022/09/10 11:29:21;;;;;;;4.35;2.80;;;;;;;23.71;nan;101101.31;5071529;28;20120;-61
2022/09/10 11:31:52;;;;;;;4.25;3.05;;;;;;;23.28;nan;101044.88;5065597;28;20053;-61
2022/09/10 11:34:27;;;;;;;6.50;2.92;;;;;;;23.75;nan;101113.53;5058401;28;20028;-62
2022/09/10 11:37:18;;;;;;;6.47;4.18;;;;;;;23.11;nan;101097.28;5061849;28;20032;-62
2022/09/10 11:39:49;;;;;;;3.65;3.22;;;;;;;23.39;nan;101055.63;5048588;28;20040;-62
2022/09/10 11:42:27;;;;;;;6.30;4.40;;;;;;;24.69;nan;101109.06;5048764;28;20039;-61
2022/09/10 11:44:59;;;;;;;4.50;3.75;;;;;;;23.90;nan;101064.72;5050024;28;20033;-62
2022/09/10 11:47:29;;;;;;;5.05;3.13;;;;;;;23.77;nan;101109.75;5050420;28;20033;-62